createdAt,value
2023-02-12T00:03:02.429Z,30.30
2023-02-12T00:08:07.385Z,39.85
2023-02-12T00:13:15.364Z,37.40
2023-02-12T00:18:20.176Z,37.33
2023-02-12T00:23:24.901Z,45.08
2023-02-12T00:28:32.327Z,41.90
2023-02-12T00:33:37.101Z,46.65
2023-02-12T00:38:41.833Z,49.03
2023-02-12T00:43:49.158Z,48.45
2023-02-12T00:48:53.961Z,47.85
2023-02-12T00:53:58.859Z,28.70
2023-02-12T00:59:06.230Z,24.25
2023-02-12T01:04:11.011Z,27.67
2023-02-12T01:09:16.155Z,25.83
2023-02-12T01:14:23.640Z,25.58
2023-02-12T01:19:28.519Z,27.25
2023-02-12T01:24:33.327Z,26.20
2023-02-12T01:29:44.893Z,26.40
2023-02-12T01:34:49.630Z,23.80
2023-02-12T01:39:54.282Z,24.80
2023-02-12T01:45:14.151Z,21.75
2023-02-12T01:50:22.587Z,22.50
2023-02-12T01:55:28.035Z,22.17
2023-02-12T02:00:33.432Z,20.55
2023-02-12T02:05:44.399Z,20.77
2023-02-12T02:10:49.145Z,19.85
2023-02-12T02:15:57.907Z,21.73
2023-02-12T02:21:21.950Z,18.77
2023-02-12T02:26:41.574Z,18.60
2023-02-12T02:31:50.116Z,19.80
2023-02-12T02:37:01.220Z,19.70
2023-02-12T02:42:11.020Z,19.88
2023-02-12T02:47:20.459Z,21.07
2023-02-12T02:52:27.364Z,19.55
2023-02-12T02:57:33.524Z,18.88
2023-02-12T03:02:43.406Z,19.75
2023-02-12T03:07:50.120Z,19.45
2023-02-12T03:12:57.103Z,19.00
2023-02-12T03:18:05.023Z,19.83
2023-02-12T03:23:11.815Z,21.13
2023-02-12T03:28:19.753Z,18.63
2023-02-12T03:33:31.828Z,18.23
2023-02-12T03:38:39.696Z,17.23
2023-02-12T03:43:50.546Z,18.27
2023-02-12T03:49:02.649Z,18.90
2023-02-12T03:54:08.003Z,18.73
2023-02-12T03:59:12.972Z,18.83
2023-02-12T04:04:20.485Z,19.10
2023-02-12T04:09:26.171Z,18.80
2023-02-12T04:14:34.206Z,19.42
2023-02-12T04:19:46.309Z,19.83
2023-02-12T04:24:56.285Z,17.63
2023-02-12T04:30:05.019Z,16.95
2023-02-12T04:35:16.490Z,21.48
2023-02-12T04:40:22.374Z,22.95
2023-02-12T04:45:28.864Z,19.65
2023-02-12T04:50:40.420Z,17.83
2023-02-12T04:55:45.645Z,16.95
2023-02-12T05:00:50.438Z,15.88
2023-02-12T05:05:57.895Z,17.17
2023-02-12T05:11:06.679Z,16.00
2023-02-12T05:16:11.604Z,16.48
2023-02-12T05:21:19.411Z,14.82
2023-02-12T05:26:25.338Z,15.55
2023-02-12T05:31:30.171Z,17.98
2023-02-12T05:36:37.592Z,16.23
2023-02-12T05:41:42.432Z,17.55
2023-02-12T05:46:47.252Z,21.23
2023-02-12T05:51:54.911Z,24.25
2023-02-12T05:56:59.740Z,28.42
2023-02-12T06:02:04.415Z,23.52
2023-02-12T06:07:11.754Z,19.25
2023-02-12T06:12:16.606Z,26.42
2023-02-12T06:17:23.726Z,30.85
2023-02-12T06:22:31.055Z,41.03
2023-02-12T06:27:35.848Z,39.60
2023-02-12T06:32:40.750Z,23.38
2023-02-12T06:37:48.150Z,19.75
2023-02-12T06:43:20.159Z,19.63
2023-02-12T06:48:24.941Z,17.77
2023-02-12T06:53:32.450Z,18.65
2023-02-12T06:58:37.207Z,16.38
2023-02-12T07:03:42.390Z,17.08
2023-02-12T07:08:50.560Z,17.40
2023-02-12T07:13:55.367Z,16.60
2023-02-12T07:19:00.101Z,15.90
2023-02-12T07:24:07.873Z,16.73
2023-02-12T07:29:13.080Z,17.80
2023-02-12T07:34:17.916Z,17.73
2023-02-12T07:39:25.288Z,15.75
2023-02-12T07:44:31.684Z,14.52
2023-02-12T07:49:36.711Z,15.70
2023-02-12T07:54:44.217Z,15.65
2023-02-12T07:59:48.950Z,19.23
2023-02-12T08:04:56.002Z,16.52
2023-02-12T08:10:04.481Z,18.60
2023-02-12T08:15:09.675Z,17.13
2023-02-12T08:20:14.852Z,17.85
2023-02-12T08:25:22.263Z,22.92
2023-02-12T08:30:29.217Z,20.08
2023-02-12T08:35:33.948Z,18.65
2023-02-12T08:40:41.288Z,17.45
2023-02-12T08:45:46.513Z,20.55
2023-02-12T08:50:51.360Z,21.90
2023-02-12T08:55:58.800Z,26.23
2023-02-12T09:01:03.910Z,25.33
2023-02-12T09:06:10.031Z,20.58
2023-02-12T09:11:18.945Z,19.27
2023-02-12T09:16:23.946Z,17.83
2023-02-12T09:21:30.266Z,17.95
2023-02-12T09:26:39.915Z,17.00
2023-02-12T09:31:44.827Z,18.40
2023-02-12T09:36:49.871Z,18.27
2023-02-12T09:42:17.052Z,20.58
2023-02-12T09:47:24.357Z,22.73
2023-02-12T09:52:30.310Z,20.80
2023-02-12T09:57:39.499Z,19.95
2023-02-12T10:02:44.467Z,22.17
2023-02-12T10:07:59.469Z,23.45
2023-02-12T10:13:08.736Z,19.77
2023-02-12T10:18:48.652Z,19.20
2023-02-12T10:24:10.906Z,19.05
2023-02-12T10:29:20.369Z,19.35
2023-02-12T10:34:26.911Z,19.43
2023-02-12T10:39:36.698Z,19.05
2023-02-12T10:44:44.248Z,19.42
2023-02-12T10:49:49.817Z,20.33
2023-02-12T10:54:54.586Z,23.17
2023-02-12T11:00:17.794Z,20.80
2023-02-12T11:05:26.212Z,19.98
2023-02-12T11:10:32.386Z,20.52
2023-02-12T11:15:42.104Z,23.15
2023-02-12T11:20:53.748Z,22.73
2023-02-12T11:26:00.052Z,24.17
2023-02-12T11:31:20.571Z,22.13
2023-02-12T11:36:26.849Z,21.75
2023-02-12T11:41:36.620Z,17.95
2023-02-12T11:46:50.098Z,17.05
2023-02-12T11:51:55.306Z,24.17
2023-02-12T11:57:00.360Z,21.85
2023-02-12T12:02:09.688Z,17.98
2023-02-12T12:07:17.922Z,18.80
2023-02-12T12:12:25.396Z,19.05
2023-02-12T12:17:52.157Z,31.67
2023-02-12T12:23:01.178Z,21.92
2023-02-12T12:28:09.784Z,15.15
2023-02-12T12:33:19.283Z,15.23
2023-02-12T12:38:29.253Z,16.17
2023-02-12T12:43:39.142Z,16.23
2023-02-12T12:48:51.539Z,16.75
2023-02-12T12:54:10.691Z,17.98
2023-02-12T12:59:25.021Z,13.43
2023-02-12T13:04:53.517Z,15.57
2023-02-12T13:10:05.544Z,18.45
2023-02-12T13:15:18.737Z,20.10
2023-02-12T13:20:30.225Z,44.90
2023-02-12T13:25:39.302Z,16.75
2023-02-12T13:30:47.065Z,16.63
2023-02-12T13:35:56.443Z,17.10
2023-02-12T13:47:10.356Z,17.63
2023-02-12T13:52:22.270Z,16.98
2023-02-12T13:57:27.208Z,17.27
2023-02-12T14:02:46.757Z,14.55
2023-02-12T14:07:55.296Z,14.90
2023-02-12T14:13:02.007Z,15.32
2023-02-12T14:18:08.201Z,13.48
2023-02-12T14:23:32.989Z,13.95
2023-02-12T14:28:55.065Z,14.23
2023-02-12T14:34:24.814Z,16.95
2023-02-12T14:39:31.041Z,17.23
2023-02-12T14:44:47.967Z,17.63
2023-02-12T14:49:55.999Z,21.48
2023-02-12T14:55:02.152Z,14.30
2023-02-12T15:00:23.801Z,13.50
2023-02-12T15:05:30.288Z,13.73
2023-02-12T15:10:37.821Z,15.95
2023-02-12T15:15:48.508Z,14.18
2023-02-12T15:20:54.455Z,13.93
2023-02-12T15:26:00.014Z,14.10
2023-02-12T15:31:10.999Z,13.88
2023-02-12T15:36:19.618Z,15.52
2023-02-12T15:41:29.625Z,16.02
2023-02-12T15:46:38.112Z,16.30
2023-02-12T15:51:43.593Z,16.48
2023-02-12T15:56:48.601Z,20.00
2023-02-12T16:02:03.790Z,20.08
2023-02-12T16:07:18.573Z,21.25
2023-02-12T16:18:25.700Z,17.40
2023-02-12T16:23:30.532Z,15.75
2023-02-12T16:28:35.595Z,14.40
2023-02-12T16:33:48.962Z,16.55
2023-02-12T16:38:54.725Z,15.48
2023-02-12T16:49:23.327Z,14.40
2023-02-12T16:54:39.501Z,13.13
2023-02-12T16:59:48.254Z,12.18
2023-02-12T17:04:57.755Z,21.65
2023-02-12T17:10:33.328Z,26.23
2023-02-12T17:16:39.848Z,21.48
2023-02-12T17:21:46.589Z,18.60
2023-02-12T17:26:52.142Z,24.33
2023-02-12T17:31:57.405Z,22.80
2023-02-12T17:37:04.991Z,34.10
2023-02-12T17:42:09.892Z,31.08
2023-02-12T17:47:14.781Z,30.98
2023-02-12T17:52:22.636Z,31.70
2023-02-12T17:57:27.494Z,30.25
2023-02-12T18:02:32.293Z,17.33
2023-02-12T18:07:44.570Z,17.35
2023-02-12T18:12:49.356Z,17.63
2023-02-12T18:17:54.272Z,16.92
2023-02-12T18:23:01.836Z,16.52
2023-02-12T18:28:06.949Z,20.83
2023-02-12T18:33:11.918Z,15.70
2023-02-12T18:38:20.669Z,19.25
2023-02-12T18:43:25.998Z,23.35
2023-02-12T18:48:30.815Z,18.98
2023-02-12T18:53:39.737Z,18.60
2023-02-12T18:58:50.330Z,16.48
2023-02-12T19:03:56.671Z,15.40
2023-02-12T19:09:13.624Z,21.73
2023-02-12T19:14:20.811Z,40.33
2023-02-12T19:19:29.662Z,56.95
2023-02-12T19:24:46.678Z,33.40
2023-02-12T19:29:51.929Z,26.63
2023-02-12T19:34:56.773Z,58.38
2023-02-12T19:40:04.526Z,63.05
2023-02-12T19:45:09.972Z,52.20
2023-02-12T19:50:15.070Z,44.15
2023-02-12T19:55:22.568Z,42.83
2023-02-12T20:00:27.427Z,38.15
2023-02-12T20:05:32.364Z,33.30
2023-02-12T20:10:42.192Z,34.28
2023-02-12T20:15:48.962Z,46.10
2023-02-12T20:21:02.913Z,35.40
2023-02-12T20:26:11.829Z,36.72
2023-02-12T20:31:17.827Z,33.63
2023-02-12T20:36:22.739Z,33.17
2023-02-12T20:41:30.907Z,34.47
2023-02-12T20:46:36.418Z,34.85
2023-02-12T20:51:42.419Z,40.65
2023-02-12T20:56:51.673Z,40.70
2023-02-12T21:01:59.792Z,40.67
2023-02-12T21:07:04.791Z,46.08
2023-02-12T21:12:12.360Z,38.50
2023-02-12T21:17:20.763Z,35.00
2023-02-12T21:22:26.019Z,38.20
2023-02-12T21:27:33.838Z,65.97
2023-02-12T21:32:38.674Z,67.35
2023-02-12T21:37:43.630Z,98.38
2023-02-12T21:42:51.185Z,98.18
2023-02-12T21:47:56.068Z,72.75
2023-02-12T21:53:01.920Z,61.03
2023-02-12T21:58:09.441Z,57.47
2023-02-12T22:03:14.328Z,51.70
2023-02-12T22:08:19.204Z,46.53
2023-02-12T22:13:26.837Z,45.85
2023-02-12T22:18:31.802Z,38.80
2023-02-12T22:23:37.010Z,37.55
2023-02-12T22:28:45.889Z,34.70
2023-02-12T22:33:51.086Z,32.00
2023-02-12T22:38:56.718Z,31.17
2023-02-12T22:44:05.466Z,30.38
2023-02-12T22:49:10.368Z,31.52
2023-02-12T22:54:16.504Z,32.80
2023-02-12T22:59:34.636Z,28.15
2023-02-12T23:04:39.812Z,28.90
2023-02-12T23:09:44.561Z,42.63
2023-02-12T23:14:52.014Z,47.67
2023-02-12T23:20:04.719Z,57.55
2023-02-12T23:25:09.810Z,51.55
2023-02-12T23:30:18.046Z,43.92
2023-02-12T23:35:25.812Z,32.15
2023-02-12T23:40:30.752Z,30.52
2023-02-12T23:45:38.286Z,30.95
2023-02-12T23:50:47.764Z,32.28
2023-02-12T23:56:01.938Z,30.63
